Jefferson, Ohio
Current Conditions -  °F | °C
As of 8:53 PM on Monday 20 Oct 2014 (Local Time) from KHZY Reporting Station
Light Rain Light Rain  
Wind Chill: 50°   Ceiling: 1800
Heat Index: 50°   Visibility: 7mi
Dew Point: 47°   Wind: 9mph
Humidity: 89%   Direction: 200°SSW
Pressure: 29.84"   Gusts: NA
Location:  41.74°N, 80.77°W
Report Text: KHZY 210053Z AUTO 20008KT 7SM -RA OVC018 10/08 A2984 RMK AO2 SLP107 P0003 T01000083
Loading
Personal Weather Stations






























Interactive Weather Map
Tropical Storm Tracking
New forecast layout! Learn more

10-Day Weather Forecast

Advertisements
Track Severe Weather on mobile